createdAt,value
2017-12-28T00:00:32.231Z,970.77
2017-12-28T00:01:32.219Z,970.76
2017-12-28T00:02:32.215Z,970.79
2017-12-28T00:03:32.296Z,970.80
2017-12-28T00:04:32.202Z,970.80
2017-12-28T00:05:32.196Z,970.79
2017-12-28T00:06:32.188Z,970.82
2017-12-28T00:07:32.184Z,970.78
2017-12-28T00:08:32.177Z,970.72
2017-12-28T00:09:32.169Z,970.75
2017-12-28T00:10:32.164Z,970.72
2017-12-28T00:11:32.232Z,970.70
2017-12-28T00:12:32.152Z,970.72
2017-12-28T00:13:32.154Z,970.74
2017-12-28T00:14:32.137Z,970.74
2017-12-28T00:15:32.132Z,970.76
2017-12-28T00:16:32.130Z,970.79
2017-12-28T00:17:32.117Z,970.78
2017-12-28T00:18:32.111Z,970.80
2017-12-28T00:19:32.114Z,970.85
2017-12-28T00:20:32.098Z,970.83
2017-12-28T00:21:32.095Z,970.88
2017-12-28T00:22:32.087Z,970.84
2017-12-28T00:23:32.079Z,970.89
2017-12-28T00:24:32.072Z,970.88
2017-12-28T00:25:32.069Z,970.92
2017-12-28T00:26:32.062Z,970.94
2017-12-28T00:27:32.092Z,970.96
2017-12-28T00:28:32.048Z,970.95
2017-12-28T00:29:32.040Z,970.98
2017-12-28T00:30:32.034Z,971.03
2017-12-28T00:31:32.033Z,971.02
2017-12-28T00:32:32.022Z,971.03
2017-12-28T00:33:32.013Z,971.03
2017-12-28T00:34:32.012Z,971.04
2017-12-28T00:35:32.002Z,971.01
2017-12-28T00:36:31.997Z,971.01
2017-12-28T00:37:31.990Z,971.04
2017-12-28T00:38:31.984Z,971.07
2017-12-28T00:39:31.975Z,971.05
2017-12-28T00:40:31.970Z,971.09
2017-12-28T00:41:31.963Z,971.12
2017-12-28T00:42:31.956Z,971.12
2017-12-28T00:43:31.982Z,971.10
2017-12-28T00:44:31.953Z,971.11
2017-12-28T00:45:31.937Z,971.14
2017-12-28T00:46:31.932Z,971.10
2017-12-28T00:47:31.922Z,971.15
2017-12-28T00:48:31.921Z,971.21
2017-12-28T00:49:31.912Z,971.18
2017-12-28T00:50:31.914Z,971.21
2017-12-28T00:51:31.902Z,971.19
2017-12-28T00:52:31.894Z,971.22
2017-12-28T00:53:31.891Z,971.26
2017-12-28T00:54:31.879Z,971.26
2017-12-28T00:55:31.875Z,971.30
2017-12-28T00:56:31.869Z,971.30
2017-12-28T00:57:31.859Z,971.34
2017-12-28T00:58:31.857Z,971.36
2017-12-28T00:59:31.850Z,971.40
2017-12-28T01:00:31.847Z,971.39
2017-12-28T01:01:31.837Z,971.37
2017-12-28T01:02:31.829Z,971.36
2017-12-28T01:03:31.827Z,971.38
2017-12-28T01:04:31.817Z,971.42
2017-12-28T01:05:31.812Z,971.43
2017-12-28T01:06:31.804Z,971.45
2017-12-28T01:07:31.797Z,971.48
2017-12-28T01:08:31.792Z,971.47
2017-12-28T01:09:31.821Z,971.52
2017-12-28T01:10:31.778Z,971.47
2017-12-28T01:11:31.775Z,971.55
2017-12-28T01:12:31.767Z,971.62
2017-12-28T01:13:32.040Z,971.62
2017-12-28T01:14:31.753Z,971.66
2017-12-28T01:15:31.745Z,971.65
2017-12-28T01:16:31.739Z,971.69
2017-12-28T01:17:31.732Z,971.73
2017-12-28T01:18:31.724Z,971.72
2017-12-28T01:19:31.718Z,971.73
2017-12-28T01:20:31.715Z,971.77
2017-12-28T01:21:31.708Z,971.77
2017-12-28T01:22:31.702Z,971.81
2017-12-28T01:23:31.701Z,971.78
2017-12-28T01:24:31.690Z,971.82
2017-12-28T01:25:31.683Z,971.83
2017-12-28T01:26:31.677Z,971.83
2017-12-28T01:27:31.671Z,971.85
2017-12-28T01:28:31.670Z,971.86
2017-12-28T01:29:31.656Z,971.86
2017-12-28T01:30:31.651Z,971.84
2017-12-28T01:31:32.531Z,971.80
2017-12-28T01:32:31.642Z,971.78
2017-12-28T01:33:31.634Z,971.79
2017-12-28T01:34:31.632Z,971.78
2017-12-28T01:35:31.623Z,971.80
2017-12-28T01:36:31.617Z,971.76
2017-12-28T01:37:32.528Z,971.74
2017-12-28T01:38:31.603Z,971.75
2017-12-28T01:39:31.596Z,971.76
2017-12-28T01:40:31.597Z,971.76
2017-12-28T01:41:31.587Z,971.81
2017-12-28T01:42:31.583Z,971.80
2017-12-28T01:43:31.578Z,971.82
2017-12-28T01:44:31.567Z,971.82
2017-12-28T01:45:31.601Z,971.84
2017-12-28T01:46:31.553Z,971.79
2017-12-28T01:47:31.594Z,971.82
2017-12-28T01:48:31.546Z,971.80
2017-12-28T01:49:31.539Z,971.82
2017-12-28T01:50:31.533Z,971.82
2017-12-28T01:51:31.526Z,971.83
2017-12-28T01:52:31.519Z,971.85
2017-12-28T01:53:31.514Z,971.82
2017-12-28T01:54:31.514Z,971.87
2017-12-28T01:55:31.501Z,971.85
2017-12-28T01:56:31.497Z,971.86
2017-12-28T01:57:31.492Z,971.88
2017-12-28T01:58:31.499Z,971.83
2017-12-28T01:59:31.478Z,971.85
2017-12-28T02:00:31.476Z,971.86
2017-12-28T02:01:31.467Z,971.85
2017-12-28T02:02:31.492Z,971.89
2017-12-28T02:03:31.454Z,971.89
2017-12-28T02:04:31.449Z,971.89
2017-12-28T02:05:31.470Z,971.90
2017-12-28T02:06:31.448Z,971.93
2017-12-28T02:07:31.432Z,971.96
2017-12-28T02:08:31.428Z,971.93
2017-12-28T02:09:31.420Z,971.92
2017-12-28T02:10:31.413Z,971.90
2017-12-28T02:11:31.409Z,971.91
2017-12-28T02:12:31.407Z,971.94
2017-12-28T02:13:31.397Z,971.96
2017-12-28T02:14:31.392Z,971.96
2017-12-28T02:15:31.385Z,971.94
2017-12-28T02:16:31.380Z,971.91
2017-12-28T02:17:31.379Z,971.91
2017-12-28T02:18:31.387Z,971.94
2017-12-28T02:19:31.365Z,971.94
2017-12-28T02:20:31.354Z,971.97
2017-12-28T02:21:31.348Z,971.97
2017-12-28T02:22:31.344Z,971.97
2017-12-28T02:23:31.344Z,971.97
2017-12-28T02:24:31.334Z,972.01
2017-12-28T02:25:31.329Z,972.04
2017-12-28T02:26:31.320Z,972.03
2017-12-28T02:27:31.317Z,971.99
2017-12-28T02:28:31.310Z,971.95
2017-12-28T02:29:31.303Z,971.99
2017-12-28T02:30:31.299Z,971.97
2017-12-28T02:31:31.293Z,971.94
2017-12-28T02:32:31.287Z,971.95
2017-12-28T02:33:31.281Z,971.95
2017-12-28T02:34:31.275Z,971.95
2017-12-28T02:35:31.272Z,971.91
2017-12-28T02:36:31.262Z,971.91
2017-12-28T02:37:31.255Z,971.87
2017-12-28T02:38:31.252Z,971.83
2017-12-28T02:39:31.243Z,971.83
2017-12-28T02:40:31.238Z,971.89
2017-12-28T02:41:31.231Z,971.86
2017-12-28T02:42:31.223Z,971.92
2017-12-28T02:43:31.218Z,971.94
2017-12-28T02:44:31.215Z,971.91
2017-12-28T02:45:31.206Z,971.91
2017-12-28T02:46:31.202Z,971.88
2017-12-28T02:47:31.195Z,971.86
2017-12-28T02:48:31.192Z,971.91
2017-12-28T02:49:31.187Z,971.92
2017-12-28T02:50:31.177Z,971.93
2017-12-28T02:51:31.171Z,971.92
2017-12-28T02:52:31.166Z,971.91
2017-12-28T02:53:31.159Z,971.92
2017-12-28T02:54:31.153Z,971.89
2017-12-28T02:55:31.147Z,971.93
2017-12-28T02:56:31.140Z,971.92
2017-12-28T02:57:31.134Z,971.92
2017-12-28T02:58:31.128Z,971.91
2017-12-28T02:59:31.122Z,971.92
2017-12-28T03:00:31.116Z,971.91
2017-12-28T03:01:31.110Z,971.92
2017-12-28T03:02:31.102Z,971.89
2017-12-28T03:03:31.097Z,971.91
2017-12-28T03:04:31.092Z,971.92
2017-12-28T03:05:31.086Z,971.90
2017-12-28T03:06:31.080Z,971.89
2017-12-28T03:07:31.071Z,971.83
2017-12-28T03:08:31.068Z,971.86
2017-12-28T03:09:31.061Z,971.84
2017-12-28T03:10:31.052Z,971.80
2017-12-28T03:11:31.060Z,971.81
2017-12-28T03:12:31.042Z,971.80
2017-12-28T03:13:31.034Z,971.79
2017-12-28T03:14:31.027Z,971.82
2017-12-28T03:15:31.022Z,971.81
2017-12-28T03:16:31.018Z,971.78
2017-12-28T03:17:31.013Z,971.80
2017-12-28T03:18:31.004Z,971.75
2017-12-28T03:19:30.998Z,971.76
2017-12-28T03:20:30.992Z,971.75
2017-12-28T03:21:30.986Z,971.75
2017-12-28T03:22:30.979Z,971.74
2017-12-28T03:23:30.973Z,971.76
2017-12-28T03:24:30.967Z,971.72
2017-12-28T03:25:30.961Z,971.75
2017-12-28T03:26:30.957Z,971.72
2017-12-28T03:27:30.947Z,971.78
2017-12-28T03:28:30.941Z,971.78
2017-12-28T03:29:30.937Z,971.79
2017-12-28T03:30:30.935Z,971.79
2017-12-28T03:31:30.924Z,971.78
2017-12-28T03:32:30.918Z,971.78
2017-12-28T03:33:30.909Z,971.80
2017-12-28T03:34:30.904Z,971.82
2017-12-28T03:35:30.896Z,971.85
2017-12-28T03:36:30.892Z,971.84
2017-12-28T03:37:30.884Z,971.85
2017-12-28T03:38:30.883Z,971.88
2017-12-28T03:39:30.873Z,971.86
2017-12-28T03:40:30.869Z,971.83
2017-12-28T03:41:30.862Z,971.89
2017-12-28T03:42:30.854Z,971.89
2017-12-28T03:43:30.850Z,971.90
2017-12-28T03:44:30.842Z,971.87
2017-12-28T03:45:30.837Z,971.91
2017-12-28T03:46:30.831Z,971.85
2017-12-28T03:47:30.823Z,971.93
2017-12-28T03:48:30.817Z,971.91
2017-12-28T03:49:30.808Z,971.94
2017-12-28T03:50:30.802Z,971.96
2017-12-28T03:51:30.797Z,971.97
2017-12-28T03:52:30.790Z,971.96
2017-12-28T03:53:30.785Z,971.98
2017-12-28T03:54:30.803Z,972.00
2017-12-28T03:55:30.774Z,971.98
2017-12-28T03:56:30.765Z,972.00
2017-12-28T03:57:30.761Z,972.07
2017-12-28T03:58:30.754Z,972.07
2017-12-28T03:59:30.746Z,972.10
2017-12-28T04:00:30.747Z,972.12
2017-12-28T04:01:30.735Z,972.12
2017-12-28T04:02:30.729Z,972.13
2017-12-28T04:03:30.726Z,972.16
2017-12-28T04:04:30.719Z,972.20
2017-12-28T04:05:30.710Z,972.20
2017-12-28T04:06:30.705Z,972.21
2017-12-28T04:07:30.848Z,972.25
2017-12-28T04:08:30.767Z,972.28
2017-12-28T04:09:31.555Z,972.26
2017-12-28T04:10:31.571Z,972.31
2017-12-28T04:11:31.562Z,972.33
2017-12-28T04:12:31.540Z,972.32
2017-12-28T04:13:30.662Z,972.34
2017-12-28T04:14:30.655Z,972.41
2017-12-28T04:15:30.647Z,972.38
2017-12-28T04:16:30.644Z,972.41
2017-12-28T04:17:30.636Z,972.43
2017-12-28T04:18:37.608Z,972.48
2017-12-28T04:19:30.624Z,972.51
2017-12-28T04:20:30.619Z,972.50
2017-12-28T04:21:30.610Z,972.58
2017-12-28T04:22:30.605Z,972.57
2017-12-28T04:23:30.600Z,972.59
2017-12-28T04:24:30.592Z,972.59
2017-12-28T04:25:30.588Z,972.62
2017-12-28T04:26:30.579Z,972.63
2017-12-28T04:27:30.574Z,972.63
2017-12-28T04:28:30.566Z,972.60
2017-12-28T04:29:30.560Z,972.68
2017-12-28T04:30:30.554Z,972.68
2017-12-28T04:31:30.551Z,972.68
2017-12-28T04:32:30.542Z,972.72
2017-12-28T04:33:30.537Z,972.71
2017-12-28T04:34:30.530Z,972.69
2017-12-28T04:35:30.523Z,972.72
2017-12-28T04:36:30.517Z,972.72
2017-12-28T04:37:30.508Z,972.73
2017-12-28T04:38:30.503Z,972.76
2017-12-28T04:39:30.497Z,972.80
2017-12-28T04:40:30.492Z,972.82
2017-12-28T04:41:30.484Z,972.75
2017-12-28T04:42:30.484Z,972.79
2017-12-28T04:43:30.472Z,972.86
2017-12-28T04:44:30.468Z,972.86
2017-12-28T04:45:30.459Z,972.87
2017-12-28T04:46:30.461Z,972.87
2017-12-28T04:47:30.449Z,972.90
2017-12-28T04:48:30.442Z,972.89
2017-12-28T04:49:30.433Z,972.86
2017-12-28T04:50:30.429Z,972.89
2017-12-28T04:51:30.424Z,972.91
2017-12-28T04:52:30.420Z,972.92
2017-12-28T04:53:30.409Z,972.94
2017-12-28T04:54:30.401Z,972.94
2017-12-28T04:55:30.399Z,972.96
2017-12-28T04:56:30.389Z,973.01
2017-12-28T04:57:30.384Z,973.01
2017-12-28T04:58:30.377Z,973.05
2017-12-28T04:59:30.374Z,973.09
2017-12-28T05:00:30.366Z,973.14
2017-12-28T05:01:30.359Z,973.13
2017-12-28T05:02:30.352Z,973.14
2017-12-28T05:03:30.346Z,973.17
2017-12-28T05:04:30.340Z,973.21
2017-12-28T05:05:30.335Z,973.17
2017-12-28T05:06:30.332Z,973.19
2017-12-28T05:07:30.323Z,973.18
2017-12-28T05:08:30.316Z,973.19
2017-12-28T05:09:30.308Z,973.20
2017-12-28T05:10:30.304Z,973.19
2017-12-28T05:11:30.296Z,973.21
2017-12-28T05:12:30.291Z,973.23
2017-12-28T05:13:30.287Z,973.25
2017-12-28T05:14:30.279Z,973.22
2017-12-28T05:15:30.281Z,973.23
2017-12-28T05:16:30.268Z,973.24
2017-12-28T05:17:30.263Z,973.27
2017-12-28T05:18:30.260Z,973.26
2017-12-28T05:19:30.249Z,973.27
2017-12-28T05:20:30.248Z,973.27
2017-12-28T05:21:30.234Z,973.27
2017-12-28T05:22:30.235Z,973.28
2017-12-28T05:23:30.223Z,973.32
2017-12-28T05:24:30.216Z,973.35
2017-12-28T05:25:30.210Z,973.39
2017-12-28T05:26:30.204Z,973.40
2017-12-28T05:27:30.200Z,973.43
2017-12-28T05:28:30.195Z,973.37
2017-12-28T05:29:30.185Z,973.41
2017-12-28T05:30:30.181Z,973.43
2017-12-28T05:31:30.184Z,973.39
2017-12-28T05:32:30.168Z,973.39
2017-12-28T05:33:30.162Z,973.39
2017-12-28T05:34:30.153Z,973.43
2017-12-28T05:35:30.148Z,973.42
2017-12-28T05:36:30.144Z,973.41
2017-12-28T05:37:30.135Z,973.36
2017-12-28T05:38:30.131Z,973.41
2017-12-28T05:39:30.124Z,973.42
2017-12-28T05:40:30.119Z,973.41
2017-12-28T05:41:30.110Z,973.42
2017-12-28T05:42:30.104Z,973.42
2017-12-28T05:43:30.099Z,973.39
2017-12-28T05:44:30.094Z,973.43
2017-12-28T05:45:30.089Z,973.38
2017-12-28T05:46:30.081Z,973.40
2017-12-28T05:47:30.074Z,973.42
2017-12-28T05:48:30.065Z,973.42
2017-12-28T05:49:30.062Z,973.48
2017-12-28T05:50:30.052Z,973.45
2017-12-28T05:51:30.046Z,973.50
2017-12-28T05:52:30.041Z,973.51
2017-12-28T05:53:30.033Z,973.52
2017-12-28T05:54:30.026Z,973.57
2017-12-28T05:55:30.020Z,973.57
2017-12-28T05:56:30.016Z,973.52
2017-12-28T05:57:30.009Z,973.57
2017-12-28T05:58:29.999Z,973.55
2017-12-28T05:59:30.002Z,973.58
2017-12-28T06:00:29.988Z,973.58
2017-12-28T06:01:29.980Z,973.60
2017-12-28T06:02:29.993Z,973.59
2017-12-28T06:03:29.966Z,973.65
2017-12-28T06:04:29.964Z,973.75
2017-12-28T06:05:29.963Z,973.74
2017-12-28T06:06:29.947Z,973.81
2017-12-28T06:07:29.940Z,973.76
2017-12-28T06:08:29.937Z,973.79
2017-12-28T06:09:29.931Z,973.82
2017-12-28T06:10:29.920Z,973.84
2017-12-28T06:11:29.916Z,973.82
2017-12-28T06:12:29.911Z,973.85
2017-12-28T06:13:29.907Z,973.87
2017-12-28T06:14:29.895Z,973.86
2017-12-28T06:15:29.889Z,973.85
2017-12-28T06:16:29.886Z,973.85
2017-12-28T06:17:29.880Z,973.82
2017-12-28T06:18:29.868Z,973.89
2017-12-28T06:19:29.872Z,973.85
2017-12-28T06:20:29.859Z,973.88
2017-12-28T06:21:29.852Z,973.90
2017-12-28T06:22:29.858Z,973.88
2017-12-28T06:23:29.839Z,973.90
2017-12-28T06:24:29.837Z,973.89
2017-12-28T06:25:29.824Z,973.90
2017-12-28T06:26:29.819Z,973.92
2017-12-28T06:27:29.812Z,973.93
2017-12-28T06:28:29.806Z,974.01
2017-12-28T06:29:29.798Z,974.01
2017-12-28T06:30:29.794Z,974.01
2017-12-28T06:31:29.786Z,973.99
2017-12-28T06:32:29.788Z,974.01
2017-12-28T06:33:29.773Z,974.09
2017-12-28T06:34:29.769Z,974.03
2017-12-28T06:35:29.761Z,974.07
2017-12-28T06:36:29.754Z,974.07
2017-12-28T06:37:29.746Z,974.05
2017-12-28T06:38:29.744Z,974.14
2017-12-28T06:39:29.736Z,974.14
2017-12-28T06:40:29.731Z,974.22
2017-12-28T06:41:29.725Z,974.20
2017-12-28T06:42:29.716Z,974.20
2017-12-28T06:43:29.710Z,974.25
2017-12-28T06:44:29.703Z,974.25
2017-12-28T06:45:29.698Z,974.25
2017-12-28T06:46:29.688Z,974.30
2017-12-28T06:47:29.687Z,974.32
2017-12-28T06:48:29.679Z,974.34
2017-12-28T06:49:29.669Z,974.39
2017-12-28T06:50:29.663Z,974.40
2017-12-28T06:51:29.659Z,974.41
2017-12-28T06:52:29.651Z,974.38
2017-12-28T06:53:29.647Z,974.42
2017-12-28T06:54:29.640Z,974.39
2017-12-28T06:55:29.634Z,974.45
2017-12-28T06:56:29.625Z,974.44
2017-12-28T06:57:29.620Z,974.49
2017-12-28T06:58:29.611Z,974.58
2017-12-28T06:59:29.608Z,974.60
2017-12-28T07:00:29.598Z,974.61
2017-12-28T07:01:29.594Z,974.65
2017-12-28T07:02:29.587Z,974.68
2017-12-28T07:03:29.583Z,974.71
2017-12-28T07:04:29.574Z,974.66
2017-12-28T07:05:29.568Z,974.71
2017-12-28T07:06:29.559Z,974.69
2017-12-28T07:07:29.552Z,974.73
2017-12-28T07:08:29.549Z,974.73
2017-12-28T07:09:29.543Z,974.75
2017-12-28T07:10:29.538Z,974.72
2017-12-28T07:11:29.528Z,974.74
2017-12-28T07:12:29.524Z,974.77
2017-12-28T07:13:29.513Z,974.81
2017-12-28T07:14:29.507Z,974.82
2017-12-28T07:15:29.504Z,974.83
2017-12-28T07:16:29.499Z,974.87
2017-12-28T07:17:29.487Z,974.82
2017-12-28T07:18:29.479Z,974.93
2017-12-28T07:19:29.473Z,974.95
2017-12-28T07:20:29.465Z,974.96
2017-12-28T07:21:29.458Z,974.99
2017-12-28T07:22:29.464Z,974.98
2017-12-28T07:23:29.446Z,975.00
2017-12-28T07:24:29.439Z,975.07
2017-12-28T07:25:29.447Z,975.06
2017-12-28T07:26:29.425Z,975.08
2017-12-28T07:27:29.418Z,975.09
2017-12-28T07:28:29.411Z,975.12
2017-12-28T07:29:29.406Z,975.23
2017-12-28T07:30:29.398Z,975.14
2017-12-28T07:31:29.394Z,975.27
2017-12-28T07:32:29.384Z,975.18
2017-12-28T07:33:29.378Z,975.27
2017-12-28T07:34:29.372Z,975.27
2017-12-28T07:35:29.368Z,975.28
2017-12-28T07:36:29.359Z,975.33
2017-12-28T07:37:29.353Z,975.38
2017-12-28T07:38:29.345Z,975.36
2017-12-28T07:39:29.343Z,975.45
2017-12-28T07:40:29.340Z,975.47
2017-12-28T07:41:29.323Z,975.55
2017-12-28T07:42:29.323Z,975.53
2017-12-28T07:43:29.317Z,975.52
2017-12-28T07:44:29.303Z,975.55
2017-12-28T07:45:29.298Z,975.57
2017-12-28T07:46:29.303Z,975.56
2017-12-28T07:47:29.284Z,975.63
2017-12-28T07:48:29.277Z,975.59
2017-12-28T07:49:29.281Z,975.63
2017-12-28T07:50:29.266Z,975.66
2017-12-28T07:51:29.256Z,975.69
2017-12-28T07:52:29.249Z,975.73
2017-12-28T07:53:29.242Z,975.72
2017-12-28T07:54:29.238Z,975.78
2017-12-28T07:55:29.229Z,975.82
2017-12-28T07:56:29.226Z,975.83
2017-12-28T07:57:29.218Z,975.82
2017-12-28T07:58:29.209Z,975.87
2017-12-28T07:59:29.202Z,975.90
2017-12-28T08:00:29.417Z,975.97
2017-12-28T08:01:29.196Z,975.94
2017-12-28T08:02:29.291Z,975.93
2017-12-28T08:03:29.176Z,975.89
2017-12-28T08:04:29.202Z,975.93
2017-12-28T08:05:29.164Z,975.98
2017-12-28T08:06:29.154Z,975.95
2017-12-28T08:07:29.149Z,975.97
2017-12-28T08:08:29.143Z,975.98
2017-12-28T08:09:29.133Z,976.00
2017-12-28T08:10:29.127Z,976.03
2017-12-28T08:11:29.123Z,976.02
2017-12-28T08:12:29.114Z,976.09
2017-12-28T08:13:29.108Z,976.08
2017-12-28T08:14:29.102Z,976.05
2017-12-28T08:15:29.095Z,976.10
2017-12-28T08:16:29.091Z,976.08
2017-12-28T08:17:29.079Z,976.16
2017-12-28T08:18:29.075Z,976.21
2017-12-28T08:19:29.251Z,976.13
2017-12-28T08:20:29.060Z,976.18
2017-12-28T08:21:29.053Z,976.22
2017-12-28T08:22:29.046Z,976.20
2017-12-28T08:23:29.040Z,976.19
2017-12-28T08:24:29.033Z,976.22
2017-12-28T08:25:29.028Z,976.24
2017-12-28T08:26:29.020Z,976.23
2017-12-28T08:27:29.015Z,976.22
2017-12-28T08:28:29.008Z,976.25
2017-12-28T08:29:28.999Z,976.29
2017-12-28T08:30:28.993Z,976.27
2017-12-28T08:31:28.986Z,976.33
2017-12-28T08:32:28.982Z,976.35
2017-12-28T08:33:28.974Z,976.40
2017-12-28T08:34:28.993Z,976.34
2017-12-28T08:35:28.958Z,976.42
2017-12-28T08:36:28.953Z,976.41
2017-12-28T08:37:28.948Z,976.47
2017-12-28T08:38:28.941Z,976.45
2017-12-28T08:39:28.934Z,976.51
2017-12-28T08:40:28.928Z,976.50
2017-12-28T08:41:28.925Z,976.48
2017-12-28T08:42:28.914Z,976.58
2017-12-28T08:43:28.909Z,976.61
2017-12-28T08:44:28.902Z,976.65
2017-12-28T08:45:28.894Z,976.64
2017-12-28T08:46:28.890Z,976.67
2017-12-28T08:47:28.884Z,976.67
2017-12-28T08:48:28.878Z,976.71
2017-12-28T08:49:28.873Z,976.75
2017-12-28T08:50:28.865Z,976.77
2017-12-28T08:51:28.858Z,976.79
2017-12-28T08:52:28.849Z,976.80
2017-12-28T08:53:28.844Z,976.84
2017-12-28T08:54:28.838Z,976.83
2017-12-28T08:55:28.833Z,976.87
2017-12-28T08:56:28.827Z,976.84
2017-12-28T08:57:28.821Z,976.87
2017-12-28T08:58:28.812Z,976.91
2017-12-28T08:59:28.808Z,976.93
2017-12-28T09:00:28.859Z,976.95
2017-12-28T09:01:28.794Z,976.95
2017-12-28T09:02:28.789Z,976.97
2017-12-28T09:03:28.778Z,977.01
2017-12-28T09:04:28.776Z,976.98
2017-12-28T09:05:28.771Z,977.01
2017-12-28T09:06:28.761Z,977.06
2017-12-28T09:07:28.757Z,977.07
2017-12-28T09:08:28.752Z,977.12
2017-12-28T09:09:28.742Z,977.11
2017-12-28T09:10:28.735Z,977.11
2017-12-28T09:11:28.730Z,977.13
2017-12-28T09:12:28.725Z,977.16
2017-12-28T09:13:28.716Z,977.19
2017-12-28T09:14:28.709Z,977.23
2017-12-28T09:15:28.708Z,977.24
2017-12-28T09:16:28.698Z,977.25
2017-12-28T09:17:28.690Z,977.28
2017-12-28T09:18:28.685Z,977.20
2017-12-28T09:19:28.678Z,977.22
2017-12-28T09:20:28.673Z,977.24
2017-12-28T09:21:28.664Z,977.28
2017-12-28T09:22:28.661Z,977.30
2017-12-28T09:23:28.653Z,977.29
2017-12-28T09:24:28.649Z,977.30
2017-12-28T09:25:28.642Z,977.30
2017-12-28T09:26:28.662Z,977.32
2017-12-28T09:27:28.627Z,977.33
2017-12-28T09:28:28.625Z,977.37
2017-12-28T09:29:28.615Z,977.31
2017-12-28T09:30:28.609Z,977.31
2017-12-28T09:31:28.602Z,977.41
2017-12-28T09:32:28.599Z,977.38
2017-12-28T09:33:28.590Z,977.37
2017-12-28T09:34:28.584Z,977.40
2017-12-28T09:35:28.579Z,977.37
2017-12-28T09:36:28.573Z,977.48
2017-12-28T09:37:28.565Z,977.48
2017-12-28T09:38:28.558Z,977.46
2017-12-28T09:39:28.556Z,977.47
2017-12-28T09:40:28.548Z,977.54
2017-12-28T09:41:28.543Z,977.46
2017-12-28T09:42:28.533Z,977.45
2017-12-28T09:43:28.528Z,977.50
2017-12-28T09:44:28.521Z,977.50
2017-12-28T09:45:28.519Z,977.46
2017-12-28T09:46:28.508Z,977.52
2017-12-28T09:47:28.507Z,977.50
2017-12-28T09:48:28.499Z,977.50
2017-12-28T09:49:28.488Z,977.52
2017-12-28T09:50:28.499Z,977.55
2017-12-28T09:51:28.477Z,977.58
2017-12-28T09:52:28.473Z,977.54
2017-12-28T09:53:28.465Z,977.56
2017-12-28T09:54:28.460Z,977.58
2017-12-28T09:55:28.454Z,977.57
2017-12-28T09:56:28.448Z,977.60
2017-12-28T09:57:28.439Z,977.58
2017-12-28T09:58:28.432Z,977.62
2017-12-28T09:59:28.430Z,977.58
2017-12-28T10:00:28.440Z,977.54
2017-12-28T10:01:28.414Z,977.57
2017-12-28T10:02:28.427Z,977.55
2017-12-28T10:03:28.403Z,977.59
2017-12-28T10:04:28.398Z,977.62
2017-12-28T10:05:28.406Z,977.61
2017-12-28T10:06:28.383Z,977.62
2017-12-28T10:07:28.379Z,977.61
2017-12-28T10:08:28.381Z,977.66
2017-12-28T10:09:28.369Z,977.66
2017-12-28T10:10:28.359Z,977.66
2017-12-28T10:11:28.352Z,977.74
2017-12-28T10:12:28.346Z,977.78
2017-12-28T10:13:28.341Z,977.78
2017-12-28T10:14:28.333Z,977.77
2017-12-28T10:15:28.328Z,977.83
2017-12-28T10:16:28.321Z,977.86
2017-12-28T10:17:28.314Z,977.84
2017-12-28T10:18:28.310Z,977.89
2017-12-28T10:19:28.302Z,977.90
2017-12-28T10:20:28.297Z,977.93
2017-12-28T10:21:28.288Z,977.94
2017-12-28T10:22:28.460Z,977.99
2017-12-28T10:23:28.280Z,977.95
2017-12-28T10:24:28.273Z,977.90
2017-12-28T10:25:28.263Z,977.97
2017-12-28T10:26:28.308Z,978.01
2017-12-28T10:27:28.253Z,977.99
2017-12-28T10:28:28.248Z,978.06
2017-12-28T10:29:28.239Z,977.98
2017-12-28T10:30:28.232Z,978.05
2017-12-28T10:31:28.226Z,978.01
2017-12-28T10:32:28.228Z,978.08
2017-12-28T10:33:28.216Z,978.07
2017-12-28T10:34:28.208Z,978.09
2017-12-28T10:35:28.203Z,978.09
2017-12-28T10:36:28.197Z,978.14
2017-12-28T10:37:28.190Z,978.17
2017-12-28T10:38:28.184Z,978.16
2017-12-28T10:39:28.417Z,978.19
2017-12-28T10:40:28.175Z,978.23
2017-12-28T10:41:28.168Z,978.26
2017-12-28T10:42:28.165Z,978.30
2017-12-28T10:43:28.154Z,978.32
2017-12-28T10:44:28.149Z,978.29
2017-12-28T10:45:28.151Z,978.27
2017-12-28T10:46:29.596Z,978.31
2017-12-28T10:47:29.193Z,978.33
2017-12-28T10:48:28.717Z,978.34
2017-12-28T10:49:29.615Z,978.31
2017-12-28T10:50:28.120Z,978.37
2017-12-28T10:51:28.194Z,978.40
2017-12-28T10:52:28.617Z,978.42
2017-12-28T10:53:28.748Z,978.37
2017-12-28T10:54:28.598Z,978.39
2017-12-28T10:55:28.799Z,978.43
2017-12-28T10:56:28.633Z,978.43
2017-12-28T10:57:28.508Z,978.40
2017-12-28T10:58:28.579Z,978.42
2017-12-28T10:59:28.370Z,978.48
2017-12-28T11:00:28.415Z,978.49
2017-12-28T11:01:28.048Z,978.45
2017-12-28T11:02:28.046Z,978.48
2017-12-28T11:03:28.038Z,978.48
2017-12-28T11:04:28.033Z,978.46
2017-12-28T11:05:28.027Z,978.50
2017-12-28T11:06:28.019Z,978.54
2017-12-28T11:07:28.014Z,978.59
2017-12-28T11:08:28.018Z,978.57
2017-12-28T11:09:28.006Z,978.64
2017-12-28T11:10:28.319Z,978.59
2017-12-28T11:11:27.993Z,978.55
2017-12-28T11:12:27.986Z,978.57
2017-12-28T11:13:27.977Z,978.60
2017-12-28T11:14:27.974Z,978.59
2017-12-28T11:15:27.969Z,978.59
2017-12-28T11:16:27.963Z,978.62
2017-12-28T11:17:27.956Z,978.59
2017-12-28T11:18:27.951Z,978.64
2017-12-28T11:19:28.389Z,978.62
2017-12-28T11:20:27.941Z,978.59
2017-12-28T11:21:27.934Z,978.63
2017-12-28T11:22:27.929Z,978.65
2017-12-28T11:23:27.932Z,978.61
2017-12-28T11:24:27.919Z,978.69
2017-12-28T11:25:27.915Z,978.70
2017-12-28T11:26:27.906Z,978.69
2017-12-28T11:27:27.904Z,978.66
2017-12-28T11:28:27.895Z,978.74
2017-12-28T11:29:27.890Z,978.71
2017-12-28T11:30:27.885Z,978.73
2017-12-28T11:31:28.081Z,978.67
2017-12-28T11:32:28.257Z,978.71
2017-12-28T11:33:27.870Z,978.72
2017-12-28T11:34:27.866Z,978.76
2017-12-28T11:35:27.858Z,978.74
2017-12-28T11:36:27.851Z,978.80
2017-12-28T11:37:27.845Z,978.73
2017-12-28T11:38:27.839Z,978.71
2017-12-28T11:39:27.835Z,978.75
2017-12-28T11:40:27.833Z,978.66
2017-12-28T11:41:27.825Z,978.70
2017-12-28T11:42:27.817Z,978.75
2017-12-28T11:43:27.813Z,978.73
2017-12-28T11:44:27.808Z,978.64
2017-12-28T11:45:27.808Z,978.81
2017-12-28T11:46:27.797Z,978.80
2017-12-28T11:47:27.795Z,978.80
2017-12-28T11:48:27.813Z,978.77
2017-12-28T11:49:27.777Z,978.76
2017-12-28T11:50:27.775Z,978.74
2017-12-28T11:51:27.769Z,978.80
2017-12-28T11:52:27.764Z,978.82
2017-12-28T11:53:27.755Z,978.81
2017-12-28T11:54:27.753Z,978.90
2017-12-28T11:55:27.748Z,978.90
2017-12-28T11:56:27.743Z,978.84
2017-12-28T11:57:27.734Z,978.85
2017-12-28T11:58:27.727Z,978.89
2017-12-28T11:59:27.725Z,978.88
2017-12-28T12:00:27.719Z,978.88
2017-12-28T12:01:27.713Z,978.86
2017-12-28T12:02:27.708Z,978.89
2017-12-28T12:03:27.702Z,978.95
2017-12-28T12:04:27.701Z,978.96
2017-12-28T12:05:27.704Z,979.00
2017-12-28T12:06:27.686Z,979.03
2017-12-28T12:07:27.678Z,979.04
2017-12-28T12:08:27.675Z,979.03
2017-12-28T12:09:27.669Z,979.05
2017-12-28T12:10:27.661Z,979.10
2017-12-28T12:11:27.657Z,979.12
2017-12-28T12:12:27.650Z,979.10
2017-12-28T12:13:27.646Z,979.11
2017-12-28T12:14:27.814Z,979.07
2017-12-28T12:15:28.116Z,979.11
2017-12-28T12:16:27.744Z,979.12
2017-12-28T12:17:27.964Z,979.15
2017-12-28T12:18:28.705Z,979.25
2017-12-28T12:19:28.595Z,979.29
2017-12-28T12:20:28.593Z,979.23
2017-12-28T12:21:28.606Z,979.30
2017-12-28T12:22:27.826Z,979.27
2017-12-28T12:23:27.591Z,979.29
2017-12-28T12:24:27.585Z,979.35
2017-12-28T12:25:27.577Z,979.39
2017-12-28T12:26:27.571Z,979.42
2017-12-28T12:27:27.567Z,979.45
2017-12-28T12:28:27.560Z,979.44